createdAt,value
2019-05-12T00:00:14.923Z,19.33
2019-05-12T00:01:14.914Z,19.36
2019-05-12T00:02:14.909Z,19.36
2019-05-12T00:03:14.900Z,19.39
2019-05-12T00:04:14.887Z,19.28
2019-05-12T00:05:14.903Z,19.33
2019-05-12T00:06:14.872Z,19.31
2019-05-12T00:07:14.870Z,19.35
2019-05-12T00:08:14.893Z,19.24
2019-05-12T00:09:14.857Z,19.28
2019-05-12T00:10:14.858Z,19.25
2019-05-12T00:11:14.841Z,19.36
2019-05-12T00:12:14.835Z,19.31
2019-05-12T00:13:14.839Z,19.35
2019-05-12T00:14:14.824Z,19.24
2019-05-12T00:15:14.821Z,19.29
2019-05-12T00:16:14.803Z,19.29
2019-05-12T00:17:14.808Z,19.25
2019-05-12T00:18:14.790Z,19.38
2019-05-12T00:19:14.784Z,19.36
2019-05-12T00:20:14.782Z,19.31
2019-05-12T00:21:14.775Z,19.35
2019-05-12T00:22:14.764Z,19.23
2019-05-12T00:23:26.744Z,19.28
2019-05-12T00:24:14.749Z,19.21
2019-05-12T00:25:14.740Z,19.24
2019-05-12T00:26:14.731Z,19.32
2019-05-12T00:27:14.729Z,19.32
2019-05-12T00:28:14.730Z,19.25
2019-05-12T00:29:14.738Z,19.24
2019-05-12T00:30:14.714Z,19.20
2019-05-12T00:31:14.702Z,19.25
2019-05-12T00:32:14.695Z,19.21
2019-05-12T00:33:14.689Z,19.29
2019-05-12T00:34:14.689Z,19.31
2019-05-12T00:35:14.678Z,19.23
2019-05-12T00:36:14.666Z,19.21
2019-05-12T00:37:14.659Z,19.31
2019-05-12T00:38:14.650Z,19.25
2019-05-12T00:39:14.641Z,19.33
2019-05-12T00:40:14.641Z,19.23
2019-05-12T00:41:14.630Z,19.31
2019-05-12T00:42:14.628Z,19.24
2019-05-12T00:43:14.639Z,19.23
2019-05-12T00:44:14.606Z,19.21
2019-05-12T00:45:14.617Z,19.23
2019-05-12T00:46:14.595Z,19.17
2019-05-12T00:47:14.598Z,19.31
2019-05-12T00:48:14.578Z,19.25
2019-05-12T00:49:14.572Z,19.20
2019-05-12T00:50:14.566Z,19.31
2019-05-12T00:51:14.560Z,19.28
2019-05-12T00:52:14.552Z,19.21
2019-05-12T00:53:14.547Z,19.21
2019-05-12T00:54:14.543Z,19.35
2019-05-12T00:55:14.531Z,19.21
2019-05-12T00:56:14.520Z,19.25
2019-05-12T00:57:14.509Z,19.17
2019-05-12T00:58:14.504Z,19.20
2019-05-12T00:59:14.500Z,19.23
2019-05-12T01:00:14.496Z,19.31
2019-05-12T01:01:14.493Z,19.33
2019-05-12T01:02:14.478Z,19.28
2019-05-12T01:03:14.469Z,19.23
2019-05-12T01:04:14.475Z,19.33
2019-05-12T01:05:14.460Z,19.20
2019-05-12T01:06:14.452Z,19.21
2019-05-12T01:07:14.451Z,19.28
2019-05-12T01:08:14.432Z,19.18
2019-05-12T01:09:14.429Z,19.24
2019-05-12T01:10:14.421Z,19.23
2019-05-12T01:11:14.415Z,19.24
2019-05-12T01:12:14.414Z,19.21
2019-05-12T01:13:14.406Z,19.23
2019-05-12T01:14:14.394Z,19.20
2019-05-12T01:15:14.390Z,19.17
2019-05-12T01:16:14.380Z,19.23
2019-05-12T01:17:14.370Z,19.15
2019-05-12T01:18:14.376Z,19.18
2019-05-12T01:19:14.363Z,19.21
2019-05-12T01:20:14.352Z,19.23
2019-05-12T01:21:14.337Z,19.18
2019-05-12T01:22:14.333Z,19.14
2019-05-12T01:23:14.325Z,19.21
2019-05-12T01:24:14.323Z,19.21
2019-05-12T01:25:14.316Z,19.20
2019-05-12T01:26:14.311Z,19.13
2019-05-12T01:27:14.300Z,19.15
2019-05-12T01:28:14.299Z,19.13
2019-05-12T01:29:14.287Z,19.21
2019-05-12T01:30:14.279Z,19.23
2019-05-12T01:31:14.266Z,19.13
2019-05-12T01:32:14.264Z,19.25
2019-05-12T01:33:14.260Z,19.18
2019-05-12T01:34:14.246Z,19.13
2019-05-12T01:35:14.238Z,19.20
2019-05-12T01:36:14.237Z,19.23
2019-05-12T01:37:14.229Z,19.20
2019-05-12T01:38:14.254Z,19.17
2019-05-12T01:39:14.219Z,19.20
2019-05-12T01:40:14.201Z,19.13
2019-05-12T01:41:14.199Z,19.18
2019-05-12T01:42:14.187Z,19.13
2019-05-12T01:43:14.185Z,19.21
2019-05-12T01:44:14.177Z,19.23
2019-05-12T01:45:14.177Z,19.13
2019-05-12T01:46:14.167Z,19.14
2019-05-12T01:47:14.160Z,19.21
2019-05-12T01:48:14.146Z,19.13
2019-05-12T01:49:14.153Z,19.15
2019-05-12T01:50:14.142Z,19.17
2019-05-12T01:51:14.132Z,19.10
2019-05-12T01:52:14.120Z,19.08
2019-05-12T01:53:14.116Z,19.18
2019-05-12T01:54:15.216Z,19.20
2019-05-12T01:55:14.101Z,19.13
2019-05-12T01:56:14.095Z,19.08
2019-05-12T01:57:14.120Z,19.11
2019-05-12T01:58:14.086Z,19.13
2019-05-12T01:59:14.069Z,19.13
2019-05-12T02:00:14.067Z,19.10
2019-05-12T02:01:14.056Z,19.13
2019-05-12T02:02:14.044Z,19.10
2019-05-12T02:03:14.037Z,19.08
2019-05-12T02:04:14.041Z,19.08
2019-05-12T02:05:14.038Z,19.15
2019-05-12T02:06:14.022Z,19.11
2019-05-12T02:07:14.013Z,19.11
2019-05-12T02:08:14.014Z,19.13
2019-05-12T02:09:14.002Z,19.10
2019-05-12T02:10:13.997Z,19.06
2019-05-12T02:11:13.995Z,19.13
2019-05-12T02:12:13.972Z,19.10
2019-05-12T02:13:13.976Z,19.13
2019-05-12T02:14:13.965Z,19.08
2019-05-12T02:15:13.968Z,19.08
2019-05-12T02:16:13.949Z,19.10
2019-05-12T02:17:13.957Z,19.06
2019-05-12T02:18:13.946Z,19.05
2019-05-12T02:19:13.929Z,19.13
2019-05-12T02:20:13.918Z,19.10
2019-05-12T02:21:13.915Z,19.13
2019-05-12T02:22:13.905Z,19.11
2019-05-12T02:23:13.901Z,19.08
2019-05-12T02:24:24.309Z,19.02
2019-05-12T02:25:13.881Z,19.02
2019-05-12T02:26:13.871Z,19.14
2019-05-12T02:27:13.866Z,19.13
2019-05-12T02:28:13.865Z,19.13
2019-05-12T02:29:13.859Z,19.11
2019-05-12T02:30:13.862Z,19.01
2019-05-12T02:31:13.841Z,19.13
2019-05-12T02:32:13.831Z,19.02
2019-05-12T02:33:15.944Z,19.05
2019-05-12T02:34:15.623Z,19.06
2019-05-12T02:35:16.081Z,18.98
2019-05-12T02:36:15.150Z,19.08
2019-05-12T02:37:15.391Z,18.98
2019-05-12T02:38:14.591Z,18.97
2019-05-12T02:39:15.026Z,18.99
2019-05-12T02:40:15.079Z,18.98
2019-05-12T02:41:15.449Z,19.01
2019-05-12T02:42:15.593Z,18.98
2019-05-12T02:43:15.481Z,19.02
2019-05-12T02:44:14.890Z,18.99
2019-05-12T02:45:15.437Z,18.99
2019-05-12T02:46:15.515Z,18.94
2019-05-12T02:47:16.009Z,18.95
2019-05-12T02:48:14.620Z,19.08
2019-05-12T02:49:15.667Z,19.02
2019-05-12T02:50:14.575Z,18.99
2019-05-12T02:51:15.504Z,18.99
2019-05-12T02:52:15.393Z,18.97
2019-05-12T02:53:14.478Z,19.08
2019-05-12T02:54:14.396Z,19.01
2019-05-12T02:55:14.912Z,19.06
2019-05-12T02:56:15.190Z,19.01
2019-05-12T02:57:14.401Z,19.01
2019-05-12T02:58:15.179Z,18.92
2019-05-12T02:59:16.228Z,18.97
2019-05-12T03:00:15.910Z,18.99
2019-05-12T03:01:15.218Z,18.92
2019-05-12T03:02:14.264Z,18.97
2019-05-12T03:03:14.585Z,18.95
2019-05-12T03:04:14.518Z,18.98
2019-05-12T03:05:14.798Z,18.98
2019-05-12T03:06:15.133Z,18.98
2019-05-12T03:07:15.321Z,18.91
2019-05-12T03:08:15.347Z,18.99
2019-05-12T03:09:15.091Z,18.94
2019-05-12T03:10:14.595Z,18.97
2019-05-12T03:11:14.818Z,18.97
2019-05-12T03:12:14.448Z,18.92
2019-05-12T03:13:14.900Z,19.05
2019-05-12T03:14:15.639Z,18.98
2019-05-12T03:15:15.114Z,18.95
2019-05-12T03:16:14.947Z,19.01
2019-05-12T03:17:15.325Z,18.97
2019-05-12T03:18:14.606Z,18.95
2019-05-12T03:19:14.976Z,18.97
2019-05-12T03:20:15.318Z,18.95
2019-05-12T03:21:15.295Z,18.94
2019-05-12T03:22:14.321Z,18.97
2019-05-12T03:23:15.762Z,18.99
2019-05-12T03:24:14.710Z,18.97
2019-05-12T03:25:24.090Z,18.90
2019-05-12T03:26:15.360Z,19.02
2019-05-12T03:27:14.626Z,19.02
2019-05-12T03:28:15.979Z,18.92
2019-05-12T03:29:14.789Z,18.97
2019-05-12T03:30:18.812Z,18.99
2019-05-12T03:31:22.157Z,18.94
2019-05-12T03:32:17.679Z,18.94
2019-05-12T03:33:18.751Z,18.95
2019-05-12T03:34:18.446Z,18.97
2019-05-12T03:35:17.635Z,18.95
2019-05-12T03:36:18.068Z,18.99
2019-05-12T03:37:17.984Z,18.97
2019-05-12T03:38:14.916Z,18.97
2019-05-12T03:39:15.007Z,19.02
2019-05-12T03:40:14.485Z,19.01
2019-05-12T03:41:14.731Z,18.97
2019-05-12T03:42:14.500Z,19.01
2019-05-12T03:43:14.658Z,18.94
2019-05-12T03:44:15.017Z,19.02
2019-05-12T03:45:14.913Z,18.92
2019-05-12T03:46:15.207Z,18.97
2019-05-12T03:47:14.471Z,18.97
2019-05-12T03:48:14.819Z,18.94
2019-05-12T03:49:15.320Z,19.01
2019-05-12T03:50:14.766Z,18.95
2019-05-12T03:51:15.483Z,18.91
2019-05-12T03:52:15.317Z,18.95
2019-05-12T03:53:15.468Z,19.01
2019-05-12T03:54:15.273Z,19.01
2019-05-12T03:55:30.248Z,18.97
2019-05-12T03:56:15.145Z,18.98
2019-05-12T03:57:14.957Z,18.95
2019-05-12T03:58:15.266Z,18.86
2019-05-12T03:59:15.005Z,18.97
2019-05-12T04:00:15.885Z,18.86
2019-05-12T04:01:14.998Z,19.01
2019-05-12T04:02:15.030Z,18.90
2019-05-12T04:03:15.311Z,18.97
2019-05-12T04:04:15.335Z,18.95
2019-05-12T04:05:15.608Z,18.90
2019-05-12T04:06:15.474Z,18.90
2019-05-12T04:07:15.227Z,18.86
2019-05-12T04:08:15.839Z,18.98
2019-05-12T04:09:15.417Z,18.94
2019-05-12T04:10:15.550Z,18.94
2019-05-12T04:11:14.583Z,18.99
2019-05-12T04:12:14.752Z,18.99
2019-05-12T04:13:15.089Z,18.94
2019-05-12T04:14:14.771Z,18.94
2019-05-12T04:15:15.225Z,18.94
2019-05-12T04:16:16.049Z,18.98
2019-05-12T04:17:14.928Z,18.95
2019-05-12T04:18:16.021Z,18.98
2019-05-12T04:19:14.683Z,18.98
2019-05-12T04:20:15.246Z,18.97
2019-05-12T04:21:15.608Z,18.98
2019-05-12T04:22:15.385Z,18.97
2019-05-12T04:23:15.343Z,18.94
2019-05-12T04:24:14.315Z,18.97
2019-05-12T04:25:14.699Z,18.99
2019-05-12T04:26:16.721Z,19.02
2019-05-12T04:27:15.033Z,18.95
2019-05-12T04:28:15.037Z,18.98
2019-05-12T04:29:15.431Z,18.98
2019-05-12T04:30:14.403Z,19.06
2019-05-12T04:31:15.523Z,18.94
2019-05-12T04:32:14.336Z,19.05
2019-05-12T04:33:15.527Z,18.97
2019-05-12T04:34:15.682Z,18.99
2019-05-12T04:35:14.834Z,19.11
2019-05-12T04:36:14.877Z,19.10
2019-05-12T04:37:14.867Z,18.98
2019-05-12T04:38:14.944Z,18.98
2019-05-12T04:39:14.709Z,19.02
2019-05-12T04:40:14.786Z,19.13
2019-05-12T04:41:14.544Z,18.99
2019-05-12T04:42:14.855Z,19.06
2019-05-12T04:43:14.610Z,19.11
2019-05-12T04:44:15.264Z,19.05
2019-05-12T04:45:15.529Z,19.08
2019-05-12T04:46:14.457Z,19.20
2019-05-12T04:47:14.626Z,19.20
2019-05-12T04:48:15.568Z,19.21
2019-05-12T04:49:15.719Z,19.15
2019-05-12T04:50:15.545Z,19.21
2019-05-12T04:51:15.405Z,19.13
2019-05-12T04:52:15.596Z,19.18
2019-05-12T04:53:14.367Z,19.21
2019-05-12T04:54:15.197Z,19.14
2019-05-12T04:55:15.080Z,19.17
2019-05-12T04:56:19.141Z,19.23
2019-05-12T04:57:14.958Z,19.29
2019-05-12T04:58:15.744Z,19.17
2019-05-12T04:59:15.792Z,19.21
2019-05-12T05:00:15.887Z,19.14
2019-05-12T05:01:15.601Z,19.20
2019-05-12T05:02:15.302Z,19.23
2019-05-12T05:03:14.216Z,19.29
2019-05-12T05:04:15.208Z,19.35
2019-05-12T05:05:14.547Z,19.18
2019-05-12T05:06:14.853Z,19.25
2019-05-12T05:07:15.027Z,19.24
2019-05-12T05:08:14.086Z,19.28
2019-05-12T05:09:14.388Z,19.24
2019-05-12T05:10:14.574Z,19.28
2019-05-12T05:11:14.791Z,19.29
2019-05-12T05:12:13.957Z,19.25
2019-05-12T05:13:14.984Z,19.32
2019-05-12T05:14:16.536Z,19.24
2019-05-12T05:15:14.595Z,19.36
2019-05-12T05:16:14.372Z,19.36
2019-05-12T05:17:15.008Z,19.40
2019-05-12T05:18:13.388Z,19.39
2019-05-12T05:19:13.893Z,19.50
2019-05-12T05:20:13.512Z,19.43
2019-05-12T05:21:13.913Z,19.55
2019-05-12T05:22:13.685Z,19.54
2019-05-12T05:23:14.270Z,19.54
2019-05-12T05:24:14.223Z,19.54
2019-05-12T05:25:14.398Z,19.60
2019-05-12T05:26:22.064Z,19.58
2019-05-12T05:27:13.282Z,19.58
2019-05-12T05:28:14.576Z,19.69
2019-05-12T05:29:13.509Z,19.63
2019-05-12T05:30:13.849Z,19.72
2019-05-12T05:31:14.047Z,19.63
2019-05-12T05:32:14.022Z,19.70
2019-05-12T05:33:14.472Z,19.69
2019-05-12T05:34:14.648Z,19.69
2019-05-12T05:35:13.669Z,19.72
2019-05-12T05:36:15.208Z,19.76
2019-05-12T05:37:14.616Z,19.75
2019-05-12T05:38:19.152Z,19.72
2019-05-12T05:39:13.922Z,19.73
2019-05-12T05:40:14.068Z,19.70
2019-05-12T05:41:13.471Z,19.80
2019-05-12T05:42:13.500Z,19.78
2019-05-12T05:43:17.761Z,19.73
2019-05-12T05:44:13.864Z,19.79
2019-05-12T05:45:19.685Z,19.78
2019-05-12T05:46:13.816Z,19.76
2019-05-12T05:47:13.893Z,19.70
2019-05-12T05:48:14.316Z,19.75
2019-05-12T05:49:13.306Z,19.75
2019-05-12T05:50:13.565Z,19.79
2019-05-12T05:51:13.620Z,19.76
2019-05-12T05:52:13.773Z,19.70
2019-05-12T05:53:17.406Z,19.73
2019-05-12T05:54:13.742Z,19.79
2019-05-12T05:55:19.945Z,19.42
2019-05-12T05:56:14.734Z,18.58
2019-05-12T05:57:14.330Z,17.63
2019-05-12T05:58:12.351Z,17.78
2019-05-12T05:59:14.824Z,17.07
2019-05-12T06:00:20.375Z,16.86
2019-05-12T06:01:13.686Z,16.60
2019-05-12T06:02:13.873Z,17.00
2019-05-12T06:03:22.262Z,16.70
2019-05-12T06:04:14.047Z,16.48
2019-05-12T06:05:14.279Z,16.34
2019-05-12T06:06:14.675Z,16.14
2019-05-12T06:07:14.387Z,16.30
2019-05-12T06:08:18.651Z,16.23
2019-05-12T06:09:14.127Z,16.27
2019-05-12T06:10:14.365Z,16.03
2019-05-12T06:11:14.831Z,15.67
2019-05-12T06:12:13.389Z,16.03
2019-05-12T06:13:14.240Z,15.75
2019-05-12T06:14:14.002Z,16.06
2019-05-12T06:15:13.603Z,15.64
2019-05-12T06:16:20.143Z,15.84
2019-05-12T06:17:14.492Z,15.52
2019-05-12T06:18:13.613Z,15.23
2019-05-12T06:19:14.091Z,15.49
2019-05-12T06:20:13.470Z,15.67
2019-05-12T06:21:13.739Z,15.89
2019-05-12T06:22:15.297Z,15.75
2019-05-12T06:23:14.527Z,15.45
2019-05-12T06:24:15.646Z,15.23
2019-05-12T06:25:15.804Z,15.24
2019-05-12T06:26:14.081Z,14.93
2019-05-12T06:27:18.651Z,14.52
2019-05-12T06:28:14.396Z,14.54
2019-05-12T06:29:20.287Z,14.91
2019-05-12T06:30:14.790Z,14.91
2019-05-12T06:31:13.854Z,15.17
2019-05-12T06:32:14.173Z,15.05
2019-05-12T06:33:14.252Z,14.95
2019-05-12T06:34:15.168Z,14.52
2019-05-12T06:35:12.055Z,14.54
2019-05-12T06:36:13.738Z,14.60
2019-05-12T06:37:16.587Z,14.71
2019-05-12T06:38:13.562Z,14.47
2019-05-12T06:39:16.474Z,14.53
2019-05-12T06:40:14.135Z,14.54
2019-05-12T06:41:20.299Z,14.24
2019-05-12T06:42:16.078Z,14.29
2019-05-12T06:43:13.957Z,14.56
2019-05-12T06:44:14.871Z,14.50
2019-05-12T06:45:13.968Z,14.43
2019-05-12T06:46:20.018Z,14.52
2019-05-12T06:47:14.178Z,14.20
2019-05-12T06:48:13.986Z,13.70
2019-05-12T06:49:15.299Z,13.96
2019-05-12T06:50:14.360Z,14.16
2019-05-12T06:51:16.973Z,14.31
2019-05-12T06:52:14.242Z,14.54
2019-05-12T06:53:13.781Z,14.34
2019-05-12T06:54:14.370Z,14.54
2019-05-12T06:55:14.050Z,14.65
2019-05-12T06:56:15.412Z,14.81
2019-05-12T06:57:22.201Z,14.34
2019-05-12T06:58:13.823Z,14.27
2019-05-12T06:59:14.078Z,14.44
2019-05-12T07:00:11.817Z,14.53
2019-05-12T07:01:18.827Z,14.54
2019-05-12T07:02:13.855Z,14.56
2019-05-12T07:03:14.057Z,15.49
2019-05-12T07:04:14.029Z,15.92
2019-05-12T07:05:14.440Z,16.25
2019-05-12T07:06:17.985Z,16.49
2019-05-12T07:07:14.123Z,16.58
2019-05-12T07:08:11.738Z,16.75
2019-05-12T07:09:18.618Z,16.83
2019-05-12T07:10:19.728Z,16.99
2019-05-12T07:11:14.076Z,16.96
2019-05-12T07:12:13.653Z,17.11
2019-05-12T07:13:14.664Z,17.11
2019-05-12T07:14:18.855Z,17.23
2019-05-12T07:15:14.147Z,17.22
2019-05-12T07:16:16.692Z,17.26
2019-05-12T07:17:11.662Z,17.29
2019-05-12T07:18:14.016Z,17.36
2019-05-12T07:19:17.447Z,17.46
2019-05-12T07:20:11.628Z,17.44
2019-05-12T07:21:15.488Z,17.50
2019-05-12T07:22:19.962Z,17.59
2019-05-12T07:23:14.049Z,17.55
2019-05-12T07:24:11.608Z,17.62
2019-05-12T07:25:13.430Z,17.76
2019-05-12T07:26:14.189Z,17.76
2019-05-12T07:27:13.934Z,17.67
2019-05-12T07:28:11.576Z,17.67
2019-05-12T07:29:13.417Z,17.70
2019-05-12T07:30:13.551Z,17.67
2019-05-12T07:31:14.074Z,17.73
2019-05-12T07:32:16.585Z,17.78
2019-05-12T07:33:11.535Z,17.84
2019-05-12T07:34:13.527Z,17.73
2019-05-12T07:35:11.505Z,17.92
2019-05-12T07:36:13.783Z,18.02
2019-05-12T07:37:11.500Z,18.02
2019-05-12T07:38:12.135Z,18.00
2019-05-12T07:39:13.542Z,18.12
2019-05-12T07:40:13.614Z,18.12
2019-05-12T07:41:11.463Z,18.18
2019-05-12T07:42:13.321Z,18.13
2019-05-12T07:43:16.249Z,18.17
2019-05-12T07:44:14.089Z,18.13
2019-05-12T07:45:16.630Z,18.22
2019-05-12T07:46:13.394Z,18.22
2019-05-12T07:47:13.658Z,18.22
2019-05-12T07:48:11.411Z,18.27
2019-05-12T07:49:11.406Z,18.19
2019-05-12T07:50:18.278Z,18.28
2019-05-12T07:51:13.600Z,18.29
2019-05-12T07:52:13.665Z,18.34
2019-05-12T07:53:11.391Z,18.40
2019-05-12T07:54:11.356Z,18.34
2019-05-12T07:55:11.352Z,18.37
2019-05-12T07:56:11.348Z,18.39
2019-05-12T07:57:14.915Z,18.46
2019-05-12T07:58:15.628Z,18.57
2019-05-12T07:59:13.448Z,18.46
2019-05-12T08:00:20.915Z,18.49
2019-05-12T08:01:11.311Z,18.54
2019-05-12T08:02:11.310Z,18.46
2019-05-12T08:03:15.943Z,18.58
2019-05-12T08:04:13.315Z,18.54
2019-05-12T08:05:19.651Z,18.54
2019-05-12T08:06:13.861Z,18.58
2019-05-12T08:07:11.260Z,18.59
2019-05-12T08:08:11.269Z,18.62
2019-05-12T08:09:13.452Z,18.58
2019-05-12T08:10:15.765Z,18.65
2019-05-12T08:11:11.237Z,18.64
2019-05-12T08:12:19.458Z,18.65
2019-05-12T08:13:11.216Z,18.59
2019-05-12T08:14:13.869Z,18.64
2019-05-12T08:15:11.207Z,18.61
2019-05-12T08:16:11.192Z,18.62
2019-05-12T08:17:18.636Z,18.77
2019-05-12T08:18:11.179Z,18.65
2019-05-12T08:19:14.981Z,18.67
2019-05-12T08:20:13.325Z,18.76
2019-05-12T08:21:11.157Z,18.76
2019-05-12T08:22:13.451Z,18.68
2019-05-12T08:23:11.140Z,18.61
2019-05-12T08:24:11.132Z,18.67
2019-05-12T08:25:13.236Z,18.74
2019-05-12T08:26:16.269Z,18.72
2019-05-12T08:27:11.114Z,18.73
2019-05-12T08:28:15.494Z,18.72
2019-05-12T08:29:17.022Z,18.73
2019-05-12T08:30:11.090Z,18.80
2019-05-12T08:31:11.086Z,18.77
2019-05-12T08:32:16.046Z,18.73
2019-05-12T08:33:11.072Z,18.80
2019-05-12T08:34:13.507Z,18.67
2019-05-12T08:35:11.051Z,18.79
2019-05-12T08:36:13.072Z,18.70
2019-05-12T08:37:11.033Z,18.70
2019-05-12T08:38:11.026Z,18.73
2019-05-12T08:39:11.749Z,18.74
2019-05-12T08:40:11.028Z,18.76
2019-05-12T08:41:11.018Z,18.83
2019-05-12T08:42:11.008Z,18.82
2019-05-12T08:43:11.025Z,18.84
2019-05-12T08:44:13.397Z,18.84
2019-05-12T08:45:15.242Z,18.91
2019-05-12T08:46:12.876Z,18.91
2019-05-12T08:47:12.165Z,18.91
2019-05-12T08:48:17.003Z,18.92
2019-05-12T08:49:10.959Z,18.91
2019-05-12T08:50:13.474Z,18.91
2019-05-12T08:51:16.895Z,18.84
2019-05-12T08:52:10.937Z,18.87
2019-05-12T08:53:12.280Z,18.84
2019-05-12T08:54:10.913Z,18.87
2019-05-12T08:55:13.839Z,18.94
2019-05-12T08:56:14.747Z,18.91
2019-05-12T08:57:10.885Z,18.92
2019-05-12T08:58:10.881Z,18.94
2019-05-12T08:59:17.579Z,18.99
2019-05-12T09:00:13.278Z,18.91
2019-05-12T09:01:10.864Z,18.92
2019-05-12T09:02:11.020Z,18.97
2019-05-12T09:03:10.865Z,19.02
2019-05-12T09:04:14.777Z,18.92
2019-05-12T09:05:10.864Z,18.98
2019-05-12T09:06:17.857Z,18.99
2019-05-12T09:07:10.824Z,18.97
2019-05-12T09:08:10.806Z,19.06
2019-05-12T09:09:10.798Z,18.99
2019-05-12T09:10:10.792Z,19.01
2019-05-12T09:11:10.788Z,18.95
2019-05-12T09:12:10.785Z,19.05
2019-05-12T09:13:10.780Z,19.02
2019-05-12T09:14:10.767Z,18.97
2019-05-12T09:15:10.770Z,18.97
2019-05-12T09:16:10.748Z,18.95
2019-05-12T09:17:10.746Z,18.97
2019-05-12T09:18:10.759Z,18.99
2019-05-12T09:19:18.251Z,18.95
2019-05-12T09:20:10.722Z,18.98
2019-05-12T09:21:10.728Z,19.05
2019-05-12T09:22:18.525Z,19.08
2019-05-12T09:23:10.697Z,19.05
2019-05-12T09:24:15.557Z,19.06
2019-05-12T09:25:10.689Z,18.98
2019-05-12T09:26:10.695Z,19.02
2019-05-12T09:27:10.693Z,19.05
2019-05-12T09:28:10.674Z,19.02
2019-05-12T09:29:10.654Z,19.02
2019-05-12T09:30:10.654Z,19.02
2019-05-12T09:31:10.644Z,19.06
2019-05-12T09:32:10.639Z,19.11
2019-05-12T09:33:10.630Z,19.11
2019-05-12T09:34:14.141Z,19.14
2019-05-12T09:35:10.615Z,19.10
2019-05-12T09:36:11.294Z,19.06
2019-05-12T09:37:10.605Z,19.15
2019-05-12T09:38:11.449Z,19.14
2019-05-12T09:39:10.591Z,19.18
2019-05-12T09:40:10.612Z,19.15
2019-05-12T09:41:10.572Z,19.24
2019-05-12T09:42:10.563Z,19.23
2019-05-12T09:43:11.034Z,19.14
2019-05-12T09:44:10.553Z,19.15
2019-05-12T09:45:10.728Z,19.21
2019-05-12T09:46:10.541Z,19.31
2019-05-12T09:47:21.917Z,19.24
2019-05-12T09:48:10.523Z,19.13
2019-05-12T09:49:10.521Z,19.17
2019-05-12T09:50:18.400Z,19.21
2019-05-12T09:51:10.506Z,19.17
2019-05-12T09:52:13.860Z,19.15
2019-05-12T09:53:11.605Z,19.18
2019-05-12T09:54:10.479Z,19.23
2019-05-12T09:55:10.484Z,19.18
2019-05-12T09:56:10.485Z,19.13
2019-05-12T09:57:10.471Z,19.20
2019-05-12T09:58:14.025Z,19.24
2019-05-12T09:59:17.964Z,19.23
2019-05-12T10:00:10.444Z,19.31
2019-05-12T10:01:10.486Z,19.31
2019-05-12T10:02:15.786Z,19.20
2019-05-12T10:03:10.439Z,19.28
2019-05-12T10:04:15.457Z,19.25
2019-05-12T10:05:10.415Z,19.28
2019-05-12T10:06:11.366Z,19.23
2019-05-12T10:07:10.385Z,19.32
2019-05-12T10:08:10.384Z,19.23
2019-05-12T10:09:15.437Z,19.24
2019-05-12T10:10:10.375Z,19.24
2019-05-12T10:11:15.284Z,19.17
2019-05-12T10:12:10.362Z,19.29
2019-05-12T10:13:10.377Z,19.28
2019-05-12T10:14:11.070Z,19.35
2019-05-12T10:15:10.370Z,19.18
2019-05-12T10:16:10.329Z,19.18
2019-05-12T10:17:10.321Z,19.32
2019-05-12T10:18:11.391Z,19.23
2019-05-12T10:19:10.308Z,19.32
2019-05-12T10:20:10.299Z,19.23
2019-05-12T10:21:15.242Z,19.24
2019-05-12T10:22:10.285Z,19.33
2019-05-12T10:23:15.647Z,19.23
2019-05-12T10:24:10.269Z,19.35
2019-05-12T10:25:10.263Z,19.28
2019-05-12T10:26:11.754Z,19.23
2019-05-12T10:27:10.303Z,19.36
2019-05-12T10:28:13.012Z,19.32
2019-05-12T10:29:19.602Z,19.25
2019-05-12T10:30:12.099Z,19.24
2019-05-12T10:31:10.227Z,19.36
2019-05-12T10:32:10.499Z,19.36
2019-05-12T10:33:10.215Z,19.25
2019-05-12T10:34:10.202Z,19.33
2019-05-12T10:35:12.567Z,19.25
2019-05-12T10:36:10.200Z,19.24
2019-05-12T10:37:10.191Z,19.24
2019-05-12T10:38:10.922Z,19.35
2019-05-12T10:39:10.162Z,19.33
2019-05-12T10:40:10.178Z,19.38
2019-05-12T10:41:10.153Z,19.25
2019-05-12T10:42:10.151Z,19.36
2019-05-12T10:43:10.159Z,19.21
2019-05-12T10:44:10.151Z,19.35
2019-05-12T10:45:15.441Z,19.35
2019-05-12T10:46:10.114Z,19.36
2019-05-12T10:47:10.110Z,19.36
2019-05-12T10:48:10.110Z,19.38
2019-05-12T10:49:10.102Z,19.35
2019-05-12T10:50:10.092Z,19.35
2019-05-12T10:51:10.094Z,19.31
2019-05-12T10:52:10.075Z,19.24
2019-05-12T10:53:15.444Z,19.31
2019-05-12T10:54:13.218Z,19.32
2019-05-12T10:55:10.056Z,19.25
2019-05-12T10:56:10.055Z,19.35
2019-05-12T10:57:10.037Z,19.28
2019-05-12T10:58:10.032Z,19.33
2019-05-12T10:59:10.032Z,19.38
2019-05-12T11:00:10.044Z,19.43
2019-05-12T11:01:10.022Z,19.40
2019-05-12T11:02:10.031Z,19.47
2019-05-12T11:03:12.341Z,19.43
2019-05-12T11:04:09.992Z,19.46
2019-05-12T11:05:12.467Z,19.39
2019-05-12T11:06:09.983Z,19.46
2019-05-12T11:07:09.976Z,19.48
2019-05-12T11:08:11.351Z,19.48
2019-05-12T11:09:09.981Z,19.43
2019-05-12T11:10:16.487Z,19.38
2019-05-12T11:11:09.950Z,19.48
2019-05-12T11:12:09.943Z,19.46
2019-05-12T11:13:10.076Z,19.48
2019-05-12T11:14:09.940Z,19.47
2019-05-12T11:15:09.919Z,19.47
2019-05-12T11:16:09.910Z,19.39
2019-05-12T11:17:09.907Z,19.40
2019-05-12T11:18:09.891Z,19.43
2019-05-12T11:19:10.678Z,19.38
2019-05-12T11:20:09.891Z,19.38
2019-05-12T11:21:09.883Z,19.42
2019-05-12T11:22:09.875Z,19.48
2019-05-12T11:23:09.862Z,19.42
2019-05-12T11:24:09.862Z,19.46
2019-05-12T11:25:09.849Z,19.39
2019-05-12T11:26:09.846Z,19.42
2019-05-12T11:27:09.842Z,19.40
2019-05-12T11:28:09.821Z,19.43
2019-05-12T11:29:09.826Z,19.46
2019-05-12T11:30:09.813Z,19.43
2019-05-12T11:31:09.803Z,19.51
2019-05-12T11:32:09.802Z,19.55
2019-05-12T11:33:09.796Z,19.57
2019-05-12T11:34:09.788Z,19.55
2019-05-12T11:35:09.786Z,19.55
2019-05-12T11:36:09.770Z,19.53
2019-05-12T11:37:09.764Z,19.53
2019-05-12T11:38:09.758Z,19.55
2019-05-12T11:39:09.748Z,19.57
2019-05-12T11:40:09.747Z,19.57
2019-05-12T11:41:14.943Z,19.55
2019-05-12T11:42:09.729Z,19.58
2019-05-12T11:43:09.739Z,19.54
2019-05-12T11:44:09.722Z,19.55
2019-05-12T11:45:09.715Z,19.54
2019-05-12T11:46:09.710Z,19.55
2019-05-12T11:47:16.919Z,19.55
2019-05-12T11:48:10.361Z,19.57
2019-05-12T11:49:09.764Z,19.58
2019-05-12T11:50:10.199Z,19.53
2019-05-12T11:51:09.674Z,19.53
2019-05-12T11:52:15.322Z,19.57
2019-05-12T11:53:09.668Z,19.66
2019-05-12T11:54:10.927Z,19.55
2019-05-12T11:55:09.646Z,19.55
2019-05-12T11:56:09.632Z,19.58
2019-05-12T11:57:09.635Z,19.50
2019-05-12T11:58:11.600Z,19.61
2019-05-12T11:59:09.622Z,19.55
2019-05-12T12:00:09.611Z,19.55
2019-05-12T12:01:09.606Z,19.55
2019-05-12T12:02:09.592Z,19.57
2019-05-12T12:03:17.062Z,19.55
2019-05-12T12:04:09.587Z,19.54
2019-05-12T12:05:09.599Z,19.50
2019-05-12T12:06:09.584Z,19.57
2019-05-12T12:07:09.567Z,19.50
2019-05-12T12:08:09.561Z,19.61
2019-05-12T12:09:14.463Z,19.60
2019-05-12T12:10:09.538Z,19.63
2019-05-12T12:11:10.544Z,19.63
2019-05-12T12:12:13.094Z,19.65
2019-05-12T12:13:09.528Z,19.66
2019-05-12T12:14:10.631Z,19.63
2019-05-12T12:15:09.508Z,19.65
2019-05-12T12:16:11.547Z,19.57
2019-05-12T12:17:09.498Z,19.69
2019-05-12T12:18:14.969Z,19.60
2019-05-12T12:19:09.482Z,19.65
2019-05-12T12:20:13.927Z,19.69
2019-05-12T12:21:09.465Z,19.65
2019-05-12T12:22:09.462Z,19.61
2019-05-12T12:23:11.245Z,19.66
2019-05-12T12:24:09.458Z,19.61
2019-05-12T12:25:10.681Z,19.63
2019-05-12T12:26:09.468Z,19.66
2019-05-12T12:27:09.431Z,19.60
2019-05-12T12:28:09.424Z,19.65
2019-05-12T12:29:09.418Z,19.66
2019-05-12T12:30:18.634Z,19.61
2019-05-12T12:31:09.413Z,19.61
2019-05-12T12:32:09.947Z,19.63
2019-05-12T12:33:09.391Z,19.66
2019-05-12T12:34:09.380Z,19.66
2019-05-12T12:35:12.936Z,19.70
2019-05-12T12:36:09.374Z,19.61
2019-05-12T12:37:09.368Z,19.54
2019-05-12T12:38:09.366Z,19.61
2019-05-12T12:39:09.351Z,19.63
2019-05-12T12:40:09.343Z,19.73
2019-05-12T12:41:09.338Z,19.68
2019-05-12T12:42:09.332Z,19.63
2019-05-12T12:43:09.320Z,19.70
2019-05-12T12:44:09.325Z,19.65
2019-05-12T12:45:09.314Z,19.60
2019-05-12T12:46:10.652Z,19.58
2019-05-12T12:47:09.299Z,19.69
2019-05-12T12:48:09.299Z,19.65
2019-05-12T12:49:10.542Z,19.69
2019-05-12T12:50:09.297Z,19.72
2019-05-12T12:51:09.282Z,19.61
2019-05-12T12:52:09.263Z,19.60